createdAt,value
2018-07-02T00:01:37.585Z,15.85
2018-07-02T00:05:52.428Z,15.84
2018-07-02T00:09:56.234Z,15.79
2018-07-02T00:13:59.857Z,15.75
2018-07-02T00:18:03.284Z,15.70
2018-07-02T00:22:06.725Z,15.66
2018-07-02T00:26:10.154Z,15.63
2018-07-02T00:30:13.561Z,15.60
2018-07-02T00:34:17.009Z,15.55
2018-07-02T00:38:20.450Z,15.54
2018-07-02T00:42:23.881Z,15.55
2018-07-02T00:46:27.280Z,15.52
2018-07-02T00:50:30.658Z,15.52
2018-07-02T00:54:34.095Z,15.49
2018-07-02T00:58:37.509Z,15.48
2018-07-02T01:02:40.943Z,15.46
2018-07-02T01:06:44.347Z,15.43
2018-07-02T01:10:47.894Z,15.42
2018-07-02T01:14:51.357Z,15.34
2018-07-02T01:18:54.789Z,15.28
2018-07-02T01:22:58.193Z,15.19
2018-07-02T01:27:01.623Z,15.15
2018-07-02T01:31:05.112Z,15.08
2018-07-02T01:35:08.700Z,15.01
2018-07-02T01:39:12.124Z,14.95
2018-07-02T01:43:15.545Z,14.88
2018-07-02T01:47:18.961Z,14.81
2018-07-02T01:51:22.368Z,14.73
2018-07-02T01:55:25.868Z,14.71
2018-07-02T01:59:29.290Z,14.67
2018-07-02T02:03:32.693Z,14.65
2018-07-02T02:07:36.146Z,14.61
2018-07-02T02:11:39.697Z,14.60
2018-07-02T02:15:43.121Z,14.56
2018-07-02T02:19:46.518Z,14.49
2018-07-02T02:23:49.978Z,14.45
2018-07-02T02:27:53.408Z,14.42
2018-07-02T02:31:56.896Z,14.41
2018-07-02T02:36:00.321Z,14.38
2018-07-02T02:40:03.924Z,14.32
2018-07-02T02:44:07.732Z,14.27
2018-07-02T02:48:11.135Z,14.24
2018-07-02T02:52:14.551Z,14.22
2018-07-02T02:56:17.970Z,14.17
2018-07-02T03:00:21.381Z,14.16
2018-07-02T03:04:24.822Z,14.16
2018-07-02T03:08:28.237Z,14.16
2018-07-02T03:12:31.646Z,14.16
2018-07-02T03:16:35.119Z,14.15
2018-07-02T03:20:38.742Z,14.14
2018-07-02T03:24:42.420Z,14.12
2018-07-02T03:28:45.832Z,14.10
2018-07-02T03:32:49.429Z,14.09
2018-07-02T03:36:52.841Z,14.10
2018-07-02T03:40:56.377Z,14.07
2018-07-02T03:45:00.135Z,14.06
2018-07-02T03:49:03.697Z,14.03
2018-07-02T03:53:07.105Z,14.04
2018-07-02T03:57:10.572Z,14.07
2018-07-02T04:01:14.081Z,14.06
2018-07-02T04:05:17.521Z,14.05
2018-07-02T04:09:20.925Z,14.02
2018-07-02T04:13:24.381Z,14.06
2018-07-02T04:17:27.846Z,14.12
2018-07-02T04:21:31.286Z,14.24
2018-07-02T04:25:34.901Z,14.43
2018-07-02T04:29:38.400Z,14.64
2018-07-02T04:33:41.806Z,14.82
2018-07-02T04:37:46.137Z,14.94
2018-07-02T04:41:49.558Z,14.99
2018-07-02T04:45:52.993Z,14.93
2018-07-02T04:49:56.481Z,14.88
2018-07-02T04:53:59.923Z,14.82
2018-07-02T04:58:03.687Z,14.80
2018-07-02T05:02:07.117Z,14.81
2018-07-02T05:06:10.633Z,14.85
2018-07-02T05:10:14.025Z,14.95
2018-07-02T05:14:17.479Z,14.93
2018-07-02T05:18:20.929Z,14.93
2018-07-02T05:22:24.320Z,15.04
2018-07-02T05:26:27.829Z,15.21
2018-07-02T05:30:31.252Z,15.40
2018-07-02T05:34:34.689Z,15.55
2018-07-02T05:38:38.122Z,15.72
2018-07-02T05:42:41.573Z,15.88
2018-07-02T05:46:45.012Z,16.07
2018-07-02T05:50:48.459Z,16.26
2018-07-02T05:54:51.952Z,16.36
2018-07-02T05:58:55.334Z,16.51
2018-07-02T06:02:58.783Z,16.69
2018-07-02T06:07:02.195Z,16.88
2018-07-02T06:11:05.634Z,17.04
2018-07-02T06:15:09.058Z,17.24
2018-07-02T06:19:12.483Z,17.48
2018-07-02T06:23:15.947Z,17.66
2018-07-02T06:27:19.670Z,17.77
2018-07-02T06:31:23.074Z,17.94
2018-07-02T06:35:26.469Z,18.14
2018-07-02T06:39:29.906Z,18.37
2018-07-02T06:43:33.289Z,18.60
2018-07-02T06:47:36.707Z,18.79
2018-07-02T06:51:40.116Z,18.92
2018-07-02T06:55:43.585Z,19.07
2018-07-02T06:59:47.181Z,19.24
2018-07-02T07:03:50.607Z,19.36
2018-07-02T07:07:54.041Z,19.45
2018-07-02T07:11:57.434Z,19.60
2018-07-02T07:16:00.872Z,19.81
2018-07-02T07:20:04.734Z,19.99
2018-07-02T07:24:08.165Z,20.14
2018-07-02T07:28:11.555Z,20.28
2018-07-02T07:32:15.002Z,20.46
2018-07-02T07:36:18.916Z,20.62
2018-07-02T07:40:22.368Z,20.80
2018-07-02T07:44:25.848Z,20.99
2018-07-02T07:48:29.538Z,21.12
2018-07-02T07:52:32.945Z,21.26
2018-07-02T07:56:36.400Z,21.41
2018-07-02T08:00:39.786Z,21.54
2018-07-02T08:08:46.625Z,21.73
2018-07-02T08:12:50.013Z,21.85
2018-07-02T08:16:53.462Z,21.95
2018-07-02T08:20:56.862Z,22.13
2018-07-02T08:25:00.296Z,22.27
2018-07-02T08:29:03.812Z,22.34
2018-07-02T08:33:07.262Z,22.49
2018-07-02T08:37:10.906Z,22.59
2018-07-02T08:41:14.305Z,22.64
2018-07-02T08:45:17.749Z,22.76
2018-07-02T08:49:21.173Z,22.76
2018-07-02T08:53:24.857Z,22.80
2018-07-02T08:57:28.323Z,22.83
2018-07-02T09:01:31.804Z,22.93
2018-07-02T09:05:35.613Z,23.09
2018-07-02T09:09:39.028Z,23.19
2018-07-02T09:13:42.850Z,23.20
2018-07-02T09:17:46.257Z,23.26
2018-07-02T09:21:49.733Z,23.33
2018-07-02T09:25:53.094Z,23.38
2018-07-02T09:29:56.525Z,23.49
2018-07-02T09:33:59.953Z,23.61
2018-07-02T09:38:03.378Z,23.74
2018-07-02T09:42:06.818Z,23.76
2018-07-02T09:46:10.257Z,23.86
2018-07-02T09:50:13.742Z,24.03
2018-07-02T09:54:17.244Z,24.12
2018-07-02T09:58:20.681Z,24.10
2018-07-02T10:02:24.113Z,24.13
2018-07-02T10:06:27.504Z,24.12
2018-07-02T10:10:30.965Z,24.17
2018-07-02T10:14:34.435Z,24.21
2018-07-02T10:18:37.894Z,24.33
2018-07-02T10:22:41.378Z,24.40
2018-07-02T10:26:44.789Z,24.46
2018-07-02T10:30:48.248Z,24.51
2018-07-02T10:34:51.698Z,24.58
2018-07-02T10:38:55.101Z,24.74
2018-07-02T10:42:58.563Z,24.79
2018-07-02T10:47:02.003Z,24.87
2018-07-02T10:51:05.380Z,24.95
2018-07-02T10:55:08.910Z,25.01
2018-07-02T10:59:12.330Z,25.10
2018-07-02T11:03:15.721Z,25.11
2018-07-02T11:07:19.108Z,25.21
2018-07-02T11:11:22.591Z,25.35
2018-07-02T11:15:27.073Z,25.42
2018-07-02T11:19:30.730Z,25.38
2018-07-02T11:23:34.156Z,25.35
2018-07-02T11:27:37.574Z,25.31
2018-07-02T11:31:40.983Z,25.29
2018-07-02T11:35:44.440Z,25.35
2018-07-02T11:39:47.902Z,25.43
2018-07-02T11:43:51.367Z,25.41
2018-07-02T11:47:54.753Z,25.50
2018-07-02T11:51:58.188Z,25.60
2018-07-02T11:56:01.607Z,25.71
2018-07-02T12:00:05.924Z,25.81
2018-07-02T12:04:09.531Z,25.99
2018-07-02T12:08:12.943Z,26.02
2018-07-02T12:12:16.351Z,26.05
2018-07-02T12:16:19.756Z,26.05
2018-07-02T12:20:23.193Z,26.02
2018-07-02T12:24:26.600Z,26.00
2018-07-02T12:28:30.023Z,25.92
2018-07-02T12:32:33.456Z,25.92
2018-07-02T12:36:36.899Z,25.99
2018-07-02T12:40:40.286Z,25.93
2018-07-02T12:44:43.712Z,25.79
2018-07-02T12:48:47.122Z,25.71
2018-07-02T12:52:50.589Z,25.78
2018-07-02T12:56:54.090Z,25.98
2018-07-02T13:00:57.525Z,25.97
2018-07-02T13:05:00.951Z,25.93
2018-07-02T13:09:06.981Z,25.95
2018-07-02T13:13:10.406Z,25.92
2018-07-02T13:17:13.810Z,26.03
2018-07-02T13:25:47.669Z,25.92
2018-07-02T13:39:09.235Z,25.84
2018-07-02T13:50:55.151Z,25.76
2018-07-02T14:12:49.375Z,25.62
2018-07-02T14:34:50.288Z,25.00
2018-07-02T14:39:00.296Z,25.02
2018-07-02T14:43:23.545Z,25.06
2018-07-02T14:52:11.300Z,25.10
2018-07-02T14:56:21.145Z,25.08
2018-07-02T15:00:29.985Z,25.09
2018-07-02T15:04:44.554Z,25.00
2018-07-02T15:08:53.141Z,24.96
2018-07-02T15:13:01.644Z,25.00
2018-07-02T15:17:13.107Z,24.99
2018-07-02T15:21:29.482Z,25.00
2018-07-02T15:25:44.644Z,24.99
2018-07-02T15:29:52.886Z,25.00
2018-07-02T15:34:07.167Z,25.00
2018-07-02T15:38:20.756Z,24.99
2018-07-02T15:42:39.184Z,24.95
2018-07-02T15:46:56.694Z,24.90
2018-07-02T15:51:11.293Z,24.89
2018-07-02T15:55:26.750Z,24.93
2018-07-02T15:59:41.103Z,24.91
2018-07-02T16:03:51.210Z,24.91
2018-07-02T16:12:19.606Z,24.91
2018-07-02T16:16:31.483Z,24.92
2018-07-02T16:20:47.317Z,24.91
2018-07-02T16:24:52.929Z,24.90
2018-07-02T16:28:57.411Z,24.91
2018-07-02T16:33:06.232Z,24.90
2018-07-02T16:37:13.760Z,24.87
2018-07-02T16:41:22.274Z,24.81
2018-07-02T16:50:07.888Z,24.77
2018-07-02T16:54:12.351Z,24.72
2018-07-02T17:02:41.417Z,24.66
2018-07-02T17:06:52.348Z,24.62
2018-07-02T17:11:05.517Z,24.61
2018-07-02T17:19:34.434Z,24.59
2018-07-02T17:23:46.851Z,24.58
2018-07-02T17:27:54.754Z,24.55
2018-07-02T17:32:02.881Z,24.54
2018-07-02T17:36:16.459Z,24.51
2018-07-02T17:40:25.451Z,24.44
2018-07-02T17:44:29.334Z,24.40
2018-07-02T17:48:37.309Z,24.38
2018-07-02T17:52:47.395Z,24.36
2018-07-02T17:56:54.430Z,24.34
2018-07-02T18:01:06.946Z,24.33
2018-07-02T18:05:14.768Z,24.30
2018-07-02T18:09:19.525Z,24.27
2018-07-02T18:13:32.162Z,24.20
2018-07-02T18:17:39.741Z,24.12
2018-07-02T18:21:58.488Z,24.06
2018-07-02T18:26:09.530Z,24.02
2018-07-02T18:34:30.324Z,23.91
2018-07-02T18:38:44.165Z,23.87
2018-07-02T18:42:49.963Z,23.82
2018-07-02T18:47:02.835Z,23.78
2018-07-02T18:51:10.648Z,23.73
2018-07-02T18:55:24.959Z,23.68
2018-07-02T18:59:35.315Z,23.56
2018-07-02T19:03:45.246Z,23.41
2018-07-02T19:08:02.450Z,23.35
2018-07-02T19:12:08.688Z,23.28
2018-07-02T19:16:18.674Z,23.18
2018-07-02T19:20:31.212Z,22.99
2018-07-02T19:24:41.313Z,22.84
2018-07-02T19:28:51.272Z,22.75
2018-07-02T19:33:00.187Z,22.68
2018-07-02T19:37:08.464Z,22.59
2018-07-02T19:41:17.608Z,22.50
2018-07-02T19:45:23.522Z,22.44
2018-07-02T19:49:34.862Z,22.35
2018-07-02T19:53:44.568Z,22.24
2018-07-02T19:57:54.009Z,22.17
2018-07-02T20:02:03.053Z,22.10
2018-07-02T20:06:10.223Z,21.99
2018-07-02T20:10:20.144Z,21.90
2018-07-02T20:14:43.004Z,21.85
2018-07-02T20:18:57.833Z,21.82
2018-07-02T20:23:07.113Z,21.78
2018-07-02T20:27:19.147Z,21.81
2018-07-02T20:31:31.793Z,21.72
2018-07-02T20:35:49.438Z,21.62
2018-07-02T20:40:05.951Z,21.58
2018-07-02T20:44:28.626Z,21.56
2018-07-02T20:48:46.129Z,21.53
2018-07-02T21:01:25.707Z,21.29
2018-07-02T21:05:35.965Z,21.20
2018-07-02T21:14:05.173Z,21.02
2018-07-02T21:22:29.965Z,20.90
2018-07-02T21:26:39.773Z,20.80
2018-07-02T21:30:49.501Z,20.71
2018-07-02T21:39:23.431Z,20.57
2018-07-02T21:47:54.710Z,20.46
2018-07-02T21:52:05.167Z,20.38
2018-07-02T21:56:21.851Z,20.28
2018-07-02T22:09:18.113Z,20.02
2018-07-02T22:13:24.200Z,19.91
2018-07-02T22:17:38.664Z,19.86
2018-07-02T22:21:48.075Z,19.83
2018-07-02T22:30:14.099Z,19.70
2018-07-02T22:34:30.767Z,19.64
2018-07-02T22:38:49.174Z,19.61
2018-07-02T22:43:00.388Z,19.56
2018-07-02T22:51:33.097Z,19.47
2018-07-02T22:55:52.573Z,19.42
2018-07-02T22:59:59.603Z,19.36
2018-07-02T23:04:11.026Z,19.25
2018-07-02T23:08:20.791Z,19.14
2018-07-02T23:12:32.842Z,19.01
2018-07-02T23:16:44.807Z,18.92
2018-07-02T23:25:14.016Z,18.72
2018-07-02T23:29:24.025Z,18.67
2018-07-02T23:33:34.374Z,18.63
2018-07-02T23:37:49.313Z,18.60
2018-07-02T23:42:01.286Z,18.58
2018-07-02T23:50:26.739Z,18.53
2018-07-02T23:54:39.028Z,18.51
